TimeMST,TemperatureF,Dew PointF,Humidity,Sea Level PressureIn,VisibilityMPH,Wind Direction,Wind SpeedMPH,Gust SpeedMPH,PrecipitationIn,Events,Conditions,WindDirDegrees,DateUTC
12:53 AM,18.0,10.0,71,29.97,10.0,NNW,3.5,-,N/A,,Partly Cloudy,330,2013-02-21 07:53:00
1:53 AM,10.9,6.1,81,30.00,10.0,SE,4.6,-,N/A,,Clear,130,2013-02-21 08:53:00
2:53 AM,8.1,3.9,83,30.01,10.0,Calm,Calm,-,N/A,,Scattered Clouds,0,2013-02-21 09:53:00
3:53 AM,3.0,-0.0,87,30.05,10.0,South,3.5,-,N/A,,Clear,180,2013-02-21 10:53:00
4:53 AM,3.0,-0.9,84,30.07,10.0,Calm,Calm,-,N/A,,Clear,0,2013-02-21 11:53:00
5:53 AM,3.0,-0.0,87,30.08,10.0,SSE,3.5,-,N/A,,Clear,160,2013-02-21 12:53:00
6:53 AM,1.0,-2.9,83,30.09,10.0,South,4.6,-,N/A,,Clear,190,2013-02-21 13:53:00
7:53 AM,-0.0,-4.0,83,30.13,10.0,South,3.5,-,N/A,,Clear,180,2013-02-21 14:53:00
8:53 AM,3.9,1.0,88,30.13,10.0,Calm,Calm,-,N/A,,Clear,0,2013-02-21 15:53:00
9:53 AM,8.1,3.9,83,30.12,10.0,Calm,Calm,-,N/A,,Clear,0,2013-02-21 16:53:00
10:53 AM,15.1,9.0,77,30.09,10.0,Calm,Calm,-,N/A,,Clear,0,2013-02-21 17:53:00
11:53 AM,24.1,8.1,51,30.05,10.0,North,3.5,-,N/A,,Clear,360,2013-02-21 18:53:00
12:53 PM,25.0,5.0,43,30.03,10.0,NW,8.1,-,N/A,,Clear,320,2013-02-21 19:53:00
1:53 PM,27.0,6.1,41,30.02,10.0,NNW,3.5,-,N/A,,Clear,340,2013-02-21 20:53:00
2:53 PM,28.0,6.1,39,30.02,10.0,WNW,9.2,-,N/A,,Clear,300,2013-02-21 21:53:00
3:53 PM,28.9,7.0,40,30.03,10.0,WNW,8.1,-,N/A,,Clear,300,2013-02-21 22:53:00
4:53 PM,27.0,8.1,45,30.04,10.0,NW,10.4,-,N/A,,Overcast,310,2013-02-21 23:53:00
5:53 PM,26.1,10.0,51,30.04,10.0,NW,5.8,-,N/A,,Mostly Cloudy,310,2013-02-22 00:53:00
6:53 PM,26.1,8.1,47,30.06,10.0,West,6.9,-,N/A,,Overcast,280,2013-02-22 01:53:00
7:53 PM,25.0,9.0,51,30.06,10.0,WSW,8.1,-,N/A,,Overcast,240,2013-02-22 02:53:00
8:53 PM,24.1,12.0,60,30.06,10.0,WSW,4.6,-,N/A,,Overcast,250,2013-02-22 03:53:00
9:53 PM,24.1,12.9,62,30.05,10.0,Calm,Calm,-,N/A,,Overcast,0,2013-02-22 04:53:00
10:53 PM,24.1,12.9,62,30.01,10.0,WSW,5.8,-,N/A,,Overcast,240,2013-02-22 05:53:00
11:53 PM,24.1,15.1,69,29.99,9.0,Calm,Calm,-,N/A,,Overcast,0,2013-02-22 06:53:00